sensor_id;sensor_type;location;lat;lon;timestamp;pressure;altitude;pressure_sealevel;temperature;humidity
13015;BME280;6573;57.696;11.950;2023-02-18T00:01:42;99671.81;;;9.03;100.00
13015;BME280;6573;57.696;11.950;2023-02-18T00:04:10;99659.44;;;9.11;100.00
13015;BME280;6573;57.696;11.950;2023-02-18T00:06:39;99680.47;;;9.08;100.00
13015;BME280;6573;57.696;11.950;2023-02-18T00:09:10;99670.13;;;8.99;100.00
13015;BME280;6573;57.696;11.950;2023-02-18T00:11:38;99662.41;;;8.88;100.00
13015;BME280;6573;57.696;11.950;2023-02-18T00:14:10;99700.06;;;8.84;100.00
13015;BME280;6573;57.696;11.950;2023-02-18T00:16:39;99700.78;;;8.95;100.00
13015;BME280;6573;57.696;11.950;2023-02-18T00:19:12;99719.22;;;8.89;100.00
13015;BME280;6573;57.696;11.950;2023-02-18T00:21:42;99729.72;;;8.89;100.00
13015;BME280;6573;57.696;11.950;2023-02-18T00:24:12;99765.78;;;8.69;100.00
13015;BME280;6573;57.696;11.950;2023-02-18T00:26:42;99733.22;;;8.87;100.00
13015;BME280;6573;57.696;11.950;2023-02-18T00:29:10;99742.94;;;8.80;100.00
13015;BME280;6573;57.696;11.950;2023-02-18T00:31:39;99748.19;;;8.80;100.00
13015;BME280;6573;57.696;11.950;2023-02-18T00:34:09;99758.88;;;8.65;100.00
13015;BME280;6573;57.696;11.950;2023-02-18T00:36:38;99772.53;;;8.88;100.00
13015;BME280;6573;57.696;11.950;2023-02-18T00:39:09;99781.47;;;8.75;100.00
13015;BME280;6573;57.696;11.950;2023-02-18T00:41:39;99783.50;;;8.49;100.00
13015;BME280;6573;57.696;11.950;2023-02-18T00:44:08;99788.44;;;8.76;100.00
13015;BME280;6573;57.696;11.950;2023-02-18T00:46:36;99792.84;;;8.71;100.00
13015;BME280;6573;57.696;11.950;2023-02-18T00:49:05;99797.41;;;8.57;100.00
13015;BME280;6573;57.696;11.950;2023-02-18T00:51:35;99809.56;;;8.61;100.00
13015;BME280;6573;57.696;11.950;2023-02-18T00:54:03;99804.44;;;8.52;100.00
13015;BME280;6573;57.696;11.950;2023-02-18T00:56:34;99817.53;;;8.54;100.00
13015;BME280;6573;57.696;11.950;2023-02-18T00:59:02;99816.75;;;8.44;100.00
13015;BME280;6573;57.696;11.950;2023-02-18T01:01:30;99827.16;;;8.53;100.00
13015;BME280;6573;57.696;11.950;2023-02-18T01:03:59;99829.09;;;8.33;100.00
13015;BME280;6573;57.696;11.950;2023-02-18T01:06:27;99851.75;;;8.37;100.00
13015;BME280;6573;57.696;11.950;2023-02-18T01:08:56;99810.03;;;8.16;100.00
13015;BME280;6573;57.696;11.950;2023-02-18T01:11:24;99852.53;;;8.48;100.00
13015;BME280;6573;57.696;11.950;2023-02-18T01:13:54;99863.88;;;8.50;100.00
13015;BME280;6573;57.696;11.950;2023-02-18T01:16:22;99881.50;;;8.33;100.00
13015;BME280;6573;57.696;11.950;2023-02-18T01:18:51;99872.69;;;8.40;100.00
13015;BME280;6573;57.696;11.950;2023-02-18T01:21:20;99890.09;;;8.50;100.00
13015;BME280;6573;57.696;11.950;2023-02-18T01:23:48;99900.75;;;8.27;100.00
13015;BME280;6573;57.696;11.950;2023-02-18T01:26:16;99895.47;;;8.35;100.00
13015;BME280;6573;57.696;11.950;2023-02-18T01:28:45;99904.19;;;8.34;100.00
13015;BME280;6573;57.696;11.950;2023-02-18T01:31:16;99915.56;;;8.31;100.00
13015;BME280;6573;57.696;11.950;2023-02-18T01:33:44;99907.75;;;8.27;100.00
13015;BME280;6573;57.696;11.950;2023-02-18T01:36:13;99916.47;;;8.26;100.00
13015;BME280;6573;57.696;11.950;2023-02-18T01:38:41;99924.25;;;8.38;100.00
13015;BME280;6573;57.696;11.950;2023-02-18T01:41:09;99937.38;;;8.38;100.00
13015;BME280;6573;57.696;11.950;2023-02-18T01:43:38;99956.56;;;8.40;100.00
13015;BME280;6573;57.696;11.950;2023-02-18T01:46:18;99949.50;;;8.48;100.00
13015;BME280;6573;57.696;11.950;2023-02-18T01:48:50;99955.81;;;8.18;100.00
13015;BME280;6573;57.696;11.950;2023-02-18T01:51:22;99964.50;;;8.22;100.00
13015;BME280;6573;57.696;11.950;2023-02-18T01:53:55;99967.16;;;8.19;100.00
13015;BME280;6573;57.696;11.950;2023-02-18T01:56:27;99975.00;;;8.26;100.00
13015;BME280;6573;57.696;11.950;2023-02-18T01:59:06;99979.34;;;8.29;100.00
13015;BME280;6573;57.696;11.950;2023-02-18T02:01:38;99986.25;;;8.42;100.00
13015;BME280;6573;57.696;11.950;2023-02-18T02:04:07;99965.44;;;8.12;100.00
13015;BME280;6573;57.696;11.950;2023-02-18T02:06:36;99981.13;;;8.21;100.00
13015;BME280;6573;57.696;11.950;2023-02-18T02:09:07;100002.06;;;8.30;100.00
13015;BME280;6573;57.696;11.950;2023-02-18T02:12:04;100003.06;;;8.06;100.00
13015;BME280;6573;57.696;11.950;2023-02-18T02:14:49;100009.13;;;8.10;100.00
13015;BME280;6573;57.696;11.950;2023-02-18T02:17:33;100020.38;;;8.24;100.00
13015;BME280;6573;57.696;11.950;2023-02-18T02:30:11;100030.94;;;8.12;100.00
13015;BME280;6573;57.696;11.950;2023-02-18T02:35:59;100043.97;;;8.33;100.00
13015;BME280;6573;57.696;11.950;2023-02-18T02:38:33;100039.63;;;8.20;100.00
13015;BME280;6573;57.696;11.950;2023-02-18T02:41:13;100041.38;;;8.27;100.00
13015;BME280;6573;57.696;11.950;2023-02-18T02:43:51;100049.25;;;8.21;100.00
13015;BME280;6573;57.696;11.950;2023-02-18T02:46:27;100064.13;;;8.16;100.00
13015;BME280;6573;57.696;11.950;2023-02-18T02:49:00;100030.94;;;8.15;100.00
13015;BME280;6573;57.696;11.950;2023-02-18T02:51:37;100023.19;;;7.94;100.00
13015;BME280;6573;57.696;11.950;2023-02-18T02:54:11;100066.75;;;8.10;100.00
13015;BME280;6573;57.696;11.950;2023-02-18T02:56:41;100063.22;;;8.20;100.00
13015;BME280;6573;57.696;11.950;2023-02-18T02:59:23;100082.38;;;8.25;100.00
13015;BME280;6573;57.696;11.950;2023-02-18T03:02:07;100078.94;;;8.20;100.00
13015;BME280;6573;57.696;11.950;2023-02-18T03:04:54;100072.81;;;8.18;100.00
13015;BME280;6573;57.696;11.950;2023-02-18T03:07:50;100068.53;;;8.05;100.00
13015;BME280;6573;57.696;11.950;2023-02-18T03:10:41;100085.94;;;8.12;100.00
13015;BME280;6573;57.696;11.950;2023-02-18T03:13:17;100092.94;;;8.07;100.00
13015;BME280;6573;57.696;11.950;2023-02-18T03:15:54;100105.13;;;8.23;100.00
13015;BME280;6573;57.696;11.950;2023-02-18T03:18:29;100090.25;;;8.26;100.00
13015;BME280;6573;57.696;11.950;2023-02-18T03:21:05;100094.66;;;8.17;100.00
13015;BME280;6573;57.696;11.950;2023-02-18T03:23:38;100099.88;;;8.26;100.00
13015;BME280;6573;57.696;11.950;2023-02-18T03:26:09;100091.16;;;8.27;100.00
13015;BME280;6573;57.696;11.950;2023-02-18T03:28:39;100096.38;;;8.27;100.00
13015;BME280;6573;57.696;11.950;2023-02-18T03:31:11;100113.84;;;8.25;100.00
13015;BME280;6573;57.696;11.950;2023-02-18T03:33:44;100111.28;;;8.10;100.00
13015;BME280;6573;57.696;11.950;2023-02-18T03:36:14;100111.25;;;8.16;100.00
13015;BME280;6573;57.696;11.950;2023-02-18T03:38:47;100122.69;;;7.94;100.00
13015;BME280;6573;57.696;11.950;2023-02-18T03:41:18;100125.31;;;7.94;100.00
13015;BME280;6573;57.696;11.950;2023-02-18T03:43:50;100127.94;;;7.91;100.00
13015;BME280;6573;57.696;11.950;2023-02-18T03:46:18;100134.91;;;7.98;100.00
13015;BME280;6573;57.696;11.950;2023-02-18T03:48:47;100147.94;;;8.10;100.00
13015;BME280;6573;57.696;11.950;2023-02-18T03:51:15;100147.13;;;7.93;100.00
13015;BME280;6573;57.696;11.950;2023-02-18T03:53:48;100150.56;;;8.07;100.00
13015;BME280;6573;57.696;11.950;2023-02-18T03:56:16;100148.81;;;8.15;100.00
13015;BME280;6573;57.696;11.950;2023-02-18T03:58:45;100145.34;;;8.07;100.00
13015;BME280;6573;57.696;11.950;2023-02-18T04:01:14;100150.56;;;8.07;100.00
13015;BME280;6573;57.696;11.950;2023-02-18T04:03:42;100159.38;;;7.84;100.00
13015;BME280;6573;57.696;11.950;2023-02-18T04:06:11;100145.38;;;7.92;100.00
13015;BME280;6573;57.696;11.950;2023-02-18T04:08:39;100146.28;;;7.91;100.00
13015;BME280;6573;57.696;11.950;2023-02-18T04:11:09;100152.38;;;7.96;100.00
13015;BME280;6573;57.696;11.950;2023-02-18T04:13:37;100155.84;;;7.92;100.00
13015;BME280;6573;57.696;11.950;2023-02-18T04:16:06;100155.84;;;7.98;100.00
13015;BME280;6573;57.696;11.950;2023-02-18T04:18:34;100152.28;;;8.20;100.00
13015;BME280;6573;57.696;11.950;2023-02-18T04:21:03;100164.59;;;7.91;100.00
13015;BME280;6573;57.696;11.950;2023-02-18T04:23:32;100168.09;;;7.93;100.00
13015;BME280;6573;57.696;11.950;2023-02-18T04:26:00;100160.22;;;7.87;100.00
13015;BME280;6573;57.696;11.950;2023-02-18T04:28:30;100176.75;;;8.07;100.00
13015;BME280;6573;57.696;11.950;2023-02-18T04:30:58;100162.84;;;7.87;100.00
13015;BME280;6573;57.696;11.950;2023-02-18T04:33:26;100176.81;;;8.01;100.00
13015;BME280;6573;57.696;11.950;2023-02-18T04:35:55;100174.19;;;7.98;100.00
13015;BME280;6573;57.696;11.950;2023-02-18T04:38:23;100185.53;;;7.98;100.00
13015;BME280;6573;57.696;11.950;2023-02-18T04:40:51;100181.16;;;7.94;100.00
13015;BME280;6573;57.696;11.950;2023-02-18T04:43:20;100184.63;;;8.10;100.00
13015;BME280;6573;57.696;11.950;2023-02-18T04:45:49;100168.13;;;7.74;100.00
13015;BME280;6573;57.696;11.950;2023-02-18T04:48:18;100180.31;;;7.91;100.00
13015;BME280;6573;57.696;11.950;2023-02-18T04:50:46;100167.25;;;7.83;100.00
13015;BME280;6573;57.696;11.950;2023-02-18T04:53:14;100164.59;;;7.91;100.00
13015;BME280;6573;57.696;11.950;2023-02-18T04:55:43;100167.22;;;7.88;100.00
13015;BME280;6573;57.696;11.950;2023-02-18T04:58:16;100180.31;;;7.84;100.00
13015;BME280;6573;57.696;11.950;2023-02-18T05:00:44;100177.69;;;7.84;100.00
13015;BME280;6573;57.696;11.950;2023-02-18T05:03:15;100182.06;;;7.79;100.00
13015;BME280;6573;57.696;11.950;2023-02-18T05:05:43;100179.44;;;7.87;100.00
13015;BME280;6573;57.696;11.950;2023-02-18T05:08:12;100183.81;;;7.83;100.00
13015;BME280;6573;57.696;11.950;2023-02-18T05:10:41;100182.94;;;7.91;100.00
13015;BME280;6573;57.696;11.950;2023-02-18T05:13:10;100183.81;;;7.74;100.00
13015;BME280;6573;57.696;11.950;2023-02-18T05:15:38;100175.94;;;7.96;100.00
13015;BME280;6573;57.696;11.950;2023-02-18T05:18:07;100180.31;;;7.81;100.00
13015;BME280;6573;57.696;11.950;2023-02-18T05:20:37;100184.69;;;7.96;100.00
13015;BME280;6573;57.696;11.950;2023-02-18T05:23:05;100181.16;;;7.94;100.00
13015;BME280;6573;57.696;11.950;2023-02-18T05:25:33;100178.56;;;7.96;100.00
13015;BME280;6573;57.696;11.950;2023-02-18T05:28:01;100191.63;;;8.05;100.00
13015;BME280;6573;57.696;11.950;2023-02-18T05:30:30;100189.91;;;7.98;100.00
13015;BME280;6573;57.696;11.950;2023-02-18T05:32:58;100167.25;;;7.86;100.00
13015;BME280;6573;57.696;11.950;2023-02-18T05:35:26;100193.38;;;7.97;100.00
13015;BME280;6573;57.696;11.950;2023-02-18T05:37:56;100171.56;;;8.04;100.00
13015;BME280;6573;57.696;11.950;2023-02-18T05:40:24;100192.53;;;7.89;100.00
13015;BME280;6573;57.696;11.950;2023-02-18T05:42:52;100196.00;;;7.97;100.00
13015;BME280;6573;57.696;11.950;2023-02-18T05:45:21;100193.34;;;8.15;100.00
13015;BME280;6573;57.696;11.950;2023-02-18T05:47:49;100204.72;;;8.02;100.00
13015;BME280;6573;57.696;11.950;2023-02-18T05:50:18;100197.78;;;7.82;100.00
13015;BME280;6573;57.696;11.950;2023-02-18T05:52:46;100202.13;;;7.91;100.00
13015;BME280;6573;57.696;11.950;2023-02-18T05:55:15;100192.50;;;7.98;100.00
13015;BME280;6573;57.696;11.950;2023-02-18T05:57:44;100196.91;;;7.83;100.00
13015;BME280;6573;57.696;11.950;2023-02-18T06:00:13;100203.88;;;7.88;100.00
13015;BME280;6573;57.696;11.950;2023-02-18T06:02:42;100192.56;;;7.70;100.00
13015;BME280;6573;57.696;11.950;2023-02-18T06:05:10;100195.16;;;7.96;100.00
13015;BME280;6573;57.696;11.950;2023-02-18T06:07:39;100204.78;;;7.80;100.00
13015;BME280;6573;57.696;11.950;2023-02-18T06:10:07;100206.53;;;7.78;100.00
13015;BME280;6573;57.696;11.950;2023-02-18T06:12:37;100192.53;;;7.84;100.00
13015;BME280;6573;57.696;11.950;2023-02-18T06:15:06;100200.38;;;7.90;100.00
13015;BME280;6573;57.696;11.950;2023-02-18T06:17:34;100189.03;;;7.87;100.00
13015;BME280;6573;57.696;11.950;2023-02-18T06:20:03;100196.03;;;7.94;100.00
13015;BME280;6573;57.696;11.950;2023-02-18T06:22:32;100199.47;;;8.02;100.00
13015;BME280;6573;57.696;11.950;2023-02-18T06:25:00;100204.75;;;7.93;100.00
13015;BME280;6573;57.696;11.950;2023-02-18T06:27:29;100199.53;;;7.74;100.00
13015;BME280;6573;57.696;11.950;2023-02-18T06:29:58;100204.75;;;7.74;100.00
13015;BME280;6573;57.696;11.950;2023-02-18T06:32:27;100204.75;;;7.93;100.00
13015;BME280;6573;57.696;11.950;2023-02-18T06:34:55;100202.13;;;7.87;100.00
13015;BME280;6573;57.696;11.950;2023-02-18T06:37:23;100207.34;;;8.05;100.00
13015;BME280;6573;57.696;11.950;2023-02-18T06:39:52;100204.78;;;7.83;100.00
13015;BME280;6573;57.696;11.950;2023-02-18T06:42:20;100201.25;;;7.91;100.00
13015;BME280;6573;57.696;11.950;2023-02-18T06:44:49;100208.22;;;7.98;100.00
13015;BME280;6573;57.696;11.950;2023-02-18T06:47:19;100217.81;;;8.06;100.00
13015;BME280;6573;57.696;11.950;2023-02-18T06:49:48;100200.38;;;7.93;100.00
13015;BME280;6573;57.696;11.950;2023-02-18T06:52:17;100176.84;;;7.64;100.00
13015;BME280;6573;57.696;11.950;2023-02-18T06:54:47;100218.69;;;7.95;100.00
13015;BME280;6573;57.696;11.950;2023-02-18T06:57:16;100226.56;;;7.92;100.00
13015;BME280;6573;57.696;11.950;2023-02-18T06:59:45;100212.59;;;7.93;100.00
13015;BME280;6573;57.696;11.950;2023-02-18T07:02:15;100187.31;;;7.67;100.00
13015;BME280;6573;57.696;11.950;2023-02-18T07:04:45;100174.22;;;7.79;100.00
13015;BME280;6573;57.696;11.950;2023-02-18T07:07:14;100216.97;;;7.94;100.00
13015;BME280;6573;57.696;11.950;2023-02-18T07:09:43;100225.69;;;7.90;100.00
13015;BME280;6573;57.696;11.950;2023-02-18T07:12:12;100154.22;;;7.51;100.00
13015;BME280;6573;57.696;11.950;2023-02-18T07:14:40;100197.78;;;7.82;100.00
13015;BME280;6573;57.696;11.950;2023-02-18T07:17:08;100204.78;;;7.65;100.00
13015;BME280;6573;57.696;11.950;2023-02-18T07:19:37;100213.50;;;7.82;100.00
13015;BME280;6573;57.696;11.950;2023-02-18T07:22:06;100230.91;;;8.08;100.00
13015;BME280;6573;57.696;11.950;2023-02-18T07:24:34;100235.28;;;7.98;100.00
13015;BME280;6573;57.696;11.950;2023-02-18T07:27:03;100219.56;;;7.97;100.00
13015;BME280;6573;57.696;11.950;2023-02-18T07:29:32;100242.28;;;7.96;100.00
13015;BME280;6573;57.696;11.950;2023-02-18T07:32:00;100230.97;;;7.83;100.00
13015;BME280;6573;57.696;11.950;2023-02-18T07:34:28;100241.38;;;8.02;100.00
13015;BME280;6573;57.696;11.950;2023-02-18T07:36:57;100236.13;;;8.02;100.00
13015;BME280;6573;57.696;11.950;2023-02-18T07:39:26;100229.19;;;7.95;100.00
13015;BME280;6573;57.696;11.950;2023-02-18T07:41:54;100236.16;;;7.96;100.00
13015;BME280;6573;57.696;11.950;2023-02-18T07:44:23;100234.41;;;7.92;100.00
13015;BME280;6573;57.696;11.950;2023-02-18T07:46:53;100242.28;;;7.96;100.00
13015;BME280;6573;57.696;11.950;2023-02-18T07:49:22;100241.41;;;7.90;100.00
13015;BME280;6573;57.696;11.950;2023-02-18T07:51:50;100251.00;;;7.95;100.00
13015;BME280;6573;57.696;11.950;2023-02-18T07:54:18;100241.41;;;7.90;100.00
13015;BME280;6573;57.696;11.950;2023-02-18T07:56:48;100253.63;;;7.94;100.00
13015;BME280;6573;57.696;11.950;2023-02-18T07:59:17;100239.66;;;7.98;100.00
13015;BME280;6573;57.696;11.950;2023-02-18T08:01:48;100237.03;;;7.87;100.00
13015;BME280;6573;57.696;11.950;2023-02-18T08:04:17;100234.44;;;7.89;100.00
13015;BME280;6573;57.696;11.950;2023-02-18T08:06:47;100244.88;;;7.98;100.00
13015;BME280;6573;57.696;11.950;2023-02-18T08:09:17;100246.63;;;8.05;100.00
13015;BME280;6573;57.696;11.950;2023-02-18T08:11:47;100251.84;;;8.09;100.00
13015;BME280;6573;57.696;11.950;2023-02-18T08:14:16;100260.59;;;8.10;100.00
13015;BME280;6573;57.696;11.950;2023-02-18T08:16:45;100255.31;;;8.19;100.00
13015;BME280;6573;57.696;11.950;2023-02-18T08:19:14;100250.09;;;8.13;100.00
13015;BME280;6573;57.696;11.950;2023-02-18T08:21:42;100241.38;;;8.05;100.00
13015;BME280;6573;57.696;11.950;2023-02-18T08:24:11;100255.31;;;8.19;100.00
13015;BME280;6573;57.696;11.950;2023-02-18T08:26:40;100248.34;;;8.09;100.00
13015;BME280;6573;57.696;11.950;2023-02-18T08:29:28;100261.44;;;8.19;100.00
13015;BME280;6573;57.696;11.950;2023-02-18T08:31:57;100262.31;;;8.14;100.00
13015;BME280;6573;57.696;11.950;2023-02-18T08:34:28;100263.22;;;8.28;100.00
13015;BME280;6573;57.696;11.950;2023-02-18T08:36:56;100264.94;;;8.30;100.00
13015;BME280;6573;57.696;11.950;2023-02-18T08:39:24;100260.59;;;8.13;100.00
13015;BME280;6573;57.696;11.950;2023-02-18T08:41:53;100245.75;;;8.00;100.00
13015;BME280;6573;57.696;11.950;2023-02-18T08:44:21;100269.31;;;8.15;100.00
13015;BME280;6573;57.696;11.950;2023-02-18T08:46:51;100275.44;;;8.05;100.00
13015;BME280;6573;57.696;11.950;2023-02-18T08:49:20;100279.78;;;8.09;100.00
13015;BME280;6573;57.696;11.950;2023-02-18T08:51:50;100272.81;;;8.15;100.00
13015;BME280;6573;57.696;11.950;2023-02-18T08:54:18;100281.53;;;8.10;100.00
13015;BME280;6573;57.696;11.950;2023-02-18T08:56:47;100251.88;;;7.99;100.00
13015;BME280;6573;57.696;11.950;2023-02-18T08:59:16;100284.13;;;8.25;100.00
13015;BME280;6573;57.696;11.950;2023-02-18T09:01:44;100262.31;;;8.23;100.00
13015;BME280;6573;57.696;11.950;2023-02-18T09:04:14;100250.97;;;8.18;100.00
13015;BME280;6573;57.696;11.950;2023-02-18T09:06:43;100286.75;;;8.25;100.00
13015;BME280;6573;57.696;11.950;2023-02-18T09:09:13;100285.00;;;8.39;100.00
13015;BME280;6573;57.696;11.950;2023-02-18T09:11:41;100295.47;;;8.45;100.00
13015;BME280;6573;57.696;11.950;2023-02-18T09:14:10;100278.00;;;8.44;100.00
13015;BME280;6573;57.696;11.950;2023-02-18T09:16:40;100300.69;;;8.63;100.00
13015;BME280;6573;57.696;11.950;2023-02-18T09:19:09;100295.41;;;8.66;100.00
13015;BME280;6573;57.696;11.950;2023-02-18T09:21:38;100297.19;;;8.58;100.00
13015;BME280;6573;57.696;11.950;2023-02-18T09:24:07;100294.59;;;8.51;100.00
13015;BME280;6573;57.696;11.950;2023-02-18T09:26:35;100307.59;;;8.76;100.00
13015;BME280;6573;57.696;11.950;2023-02-18T09:29:05;100298.91;;;8.73;100.00
13015;BME280;6573;57.696;11.950;2023-02-18T09:31:34;100301.47;;;8.79;100.00
13015;BME280;6573;57.696;11.950;2023-02-18T09:34:04;100302.44;;;8.55;100.00
13015;BME280;6573;57.696;11.950;2023-02-18T09:36:33;100305.06;;;8.46;100.00
13015;BME280;6573;57.696;11.950;2023-02-18T09:39:02;100291.97;;;8.49;100.00
13015;BME280;6573;57.696;11.950;2023-02-18T09:41:35;100291.91;;;8.61;100.00
13015;BME280;6573;57.696;11.950;2023-02-18T09:44:11;100317.22;;;8.76;100.00
13015;BME280;6573;57.696;11.950;2023-02-18T09:46:47;100309.38;;;8.74;100.00
13015;BME280;6573;57.696;11.950;2023-02-18T09:49:21;100304.16;;;8.65;100.00
13015;BME280;6573;57.696;11.950;2023-02-18T09:51:52;100316.38;;;8.72;100.00
13015;BME280;6573;57.696;11.950;2023-02-18T09:54:22;100305.91;;;8.68;100.00
13015;BME280;6573;57.696;11.950;2023-02-18T09:56:52;100313.69;;;8.81;100.00
13015;BME280;6573;57.696;11.950;2023-02-18T09:59:22;100266.66;;;8.25;100.00
13015;BME280;6573;57.696;11.950;2023-02-18T10:01:53;100315.44;;;8.81;100.00
13015;BME280;6573;57.696;11.950;2023-02-18T10:04:27;100307.53;;;8.88;100.00
13015;BME280;6573;57.696;11.950;2023-02-18T10:06:56;100311.09;;;8.81;100.00
13015;BME280;6573;57.696;11.950;2023-02-18T10:09:32;100314.44;;;9.10;100.00
13015;BME280;6573;57.696;11.950;2023-02-18T10:12:07;100314.50;;;9.01;100.00
13015;BME280;6573;57.696;11.950;2023-02-18T10:14:40;100297.09;;;8.76;100.00
13015;BME280;6573;57.696;11.950;2023-02-18T10:17:12;100319.53;;;9.38;100.00
13015;BME280;6573;57.696;11.950;2023-02-18T10:19:43;100300.06;;;9.72;100.00
13015;BME280;6573;57.696;11.950;2023-02-18T10:22:13;100287.09;;;9.49;100.00
13015;BME280;6573;57.696;11.950;2023-02-18T10:24:47;100308.91;;;9.62;100.00
13015;BME280;6573;57.696;11.950;2023-02-18T10:27:20;100307.47;;;9.03;100.00
13015;BME280;6573;57.696;11.950;2023-02-18T10:29:51;100302.16;;;9.22;100.00
13015;BME280;6573;57.696;11.950;2023-02-18T10:32:22;100318.81;;;9.13;100.00
13015;BME280;6573;57.696;11.950;2023-02-18T10:34:52;100314.38;;;9.26;100.00
13015;BME280;6573;57.696;11.950;2023-02-18T10:37:36;100291.66;;;9.19;100.00
13015;BME280;6573;57.696;11.950;2023-02-18T10:40:13;100312.63;;;9.25;100.00
13015;BME280;6573;57.696;11.950;2023-02-18T10:42:55;100316.13;;;9.30;100.00
13015;BME280;6573;57.696;11.950;2023-02-18T10:45:32;100312.72;;;9.03;100.00
13015;BME280;6573;57.696;11.950;2023-02-18T10:48:19;100300.59;;;8.78;100.00
13015;BME280;6573;57.696;11.950;2023-02-18T10:50:51;100317.22;;;8.71;100.00
13015;BME280;6573;57.696;11.950;2023-02-18T10:53:24;100311.09;;;8.81;100.00
13015;BME280;6573;57.696;11.950;2023-02-18T10:55:59;100309.38;;;8.73;100.00
13015;BME280;6573;57.696;11.950;2023-02-18T10:58:32;100317.19;;;8.85;100.00
13015;BME280;6573;57.696;11.950;2023-02-18T11:01:03;100293.56;;;8.92;100.00
13015;BME280;6573;57.696;11.950;2023-02-18T11:03:42;100288.28;;;8.98;100.00
13015;BME280;6573;57.696;11.950;2023-02-18T11:06:21;100304.06;;;8.92;100.00
13015;BME280;6573;57.696;11.950;2023-02-18T11:08:53;100311.88;;;9.04;100.00
13015;BME280;6573;57.696;11.950;2023-02-18T11:11:27;100304.00;;;9.01;100.00
13015;BME280;6573;57.696;11.950;2023-02-18T11:13:58;100309.31;;;8.92;100.00
13015;BME280;6573;57.696;11.950;2023-02-18T11:16:36;100297.88;;;9.01;100.00
13015;BME280;6573;57.696;11.950;2023-02-18T11:19:31;100306.66;;;8.97;100.00
13015;BME280;6573;57.696;11.950;2023-02-18T11:22:08;100311.00;;;9.02;100.00
13015;BME280;6573;57.696;11.950;2023-02-18T11:24:41;100312.66;;;9.16;100.00
13015;BME280;6573;57.696;11.950;2023-02-18T11:27:22;100300.50;;;9.02;100.00
13015;BME280;6573;57.696;11.950;2023-02-18T11:29:53;100307.44;;;9.14;100.00
13015;BME280;6573;57.696;11.950;2023-02-18T11:32:26;100309.25;;;9.04;100.00
13015;BME280;6573;57.696;11.950;2023-02-18T11:34:58;100308.31;;;9.18;100.00
13015;BME280;6573;57.696;11.950;2023-02-18T11:37:27;100299.59;;;9.09;100.00
13015;BME280;6573;57.696;11.950;2023-02-18T11:39:55;100289.94;;;9.18;100.00
13015;BME280;6573;57.696;11.950;2023-02-18T11:42:27;100299.50;;;9.28;100.00
13015;BME280;6573;57.696;11.950;2023-02-18T11:44:56;100294.97;;;9.48;100.00
13015;BME280;6573;57.696;11.950;2023-02-18T11:47:36;100295.91;;;9.39;100.00
13015;BME280;6573;57.696;11.950;2023-02-18T11:50:16;100294.09;;;9.52;100.00
13015;BME280;6573;57.696;11.950;2023-02-18T11:52:49;100293.28;;;9.41;100.00
13015;BME280;6573;57.696;11.950;2023-02-18T11:55:20;100280.25;;;9.27;100.00
13015;BME280;6573;57.696;11.950;2023-02-18T11:57:54;100280.22;;;9.32;100.00
13015;BME280;6573;57.696;11.950;2023-02-18T12:00:37;100301.16;;;9.42;100.00
13015;BME280;6573;57.696;11.950;2023-02-18T12:03:21;100293.13;;;9.65;100.00
13015;BME280;6573;57.696;11.950;2023-02-18T12:05:56;100291.38;;;9.61;100.00
13015;BME280;6573;57.696;11.950;2023-02-18T12:08:27;100293.06;;;9.71;100.00
13015;BME280;6573;57.696;11.950;2023-02-18T12:11:00;100303.63;;;9.60;100.00
13015;BME280;6573;57.696;11.950;2023-02-18T12:13:34;100289.63;;;9.63;100.00
13015;BME280;6573;57.696;11.950;2023-02-18T12:16:18;100266.97;;;9.50;100.00
13015;BME280;6573;57.696;11.950;2023-02-18T12:18:56;100292.47;;;9.33;100.00
13015;BME280;6573;57.696;11.950;2023-02-18T12:21:34;100292.53;;;9.25;100.00
13015;BME280;6573;57.696;11.950;2023-02-18T12:24:12;100296.06;;;9.17;100.00
13015;BME280;6573;57.696;11.950;2023-02-18T12:26:51;100300.34;;;9.33;100.00
13015;BME280;6573;57.696;11.950;2023-02-18T12:29:35;100283.84;;;9.09;100.00
13015;BME280;6573;57.696;11.950;2023-02-18T12:32:18;100298.81;;;8.95;100.00
13015;BME280;6573;57.696;11.950;2023-02-18T12:35:00;100290.97;;;8.88;100.00
13015;BME280;6573;57.696;11.950;2023-02-18T12:37:56;100286.59;;;8.85;100.00
13015;BME280;6573;57.696;11.950;2023-02-18T12:40:39;100304.00;;;9.04;100.00
13015;BME280;6573;57.696;11.950;2023-02-18T12:43:21;100298.75;;;9.07;100.00
13015;BME280;6573;57.696;11.950;2023-02-18T12:46:11;100312.78;;;9.00;100.00
13015;BME280;6573;57.696;11.950;2023-02-18T12:48:59;100308.38;;;9.02;100.00
13015;BME280;6573;57.696;11.950;2023-02-18T12:51:39;100318.03;;;8.94;100.00
13015;BME280;6573;57.696;11.950;2023-02-18T12:54:32;100273.56;;;8.61;100.00
13015;BME280;6573;57.696;11.950;2023-02-18T12:57:25;100262.97;;;8.90;100.00
13015;BME280;6573;57.696;11.950;2023-02-18T13:00:27;100298.75;;;9.04;100.00
13015;BME280;6573;57.696;11.950;2023-02-18T13:03:26;100314.44;;;9.13;100.00
13015;BME280;6573;57.696;11.950;2023-02-18T13:06:03;100316.22;;;9.04;100.00
13015;BME280;6573;57.696;11.950;2023-02-18T13:08:44;100308.38;;;8.99;100.00
13015;BME280;6573;57.696;11.950;2023-02-18T13:11:30;100279.59;;;8.90;100.00
13015;BME280;6573;57.696;11.950;2023-02-18T13:14:08;100296.91;;;9.16;100.00
13015;BME280;6573;57.696;11.950;2023-02-18T13:16:40;100304.84;;;9.13;100.00
13015;BME280;6573;57.696;11.950;2023-02-18T13:19:19;100294.25;;;9.28;100.00
13015;BME280;6573;57.696;11.950;2023-02-18T13:21:51;100298.66;;;9.23;100.00
13015;BME280;6573;57.696;11.950;2023-02-18T13:24:27;100307.53;;;8.97;100.00
13015;BME280;6573;57.696;11.950;2023-02-18T13:27:05;100302.28;;;8.94;100.00
13015;BME280;6573;57.696;11.950;2023-02-18T13:29:43;100300.56;;;8.90;100.00
13015;BME280;6573;57.696;11.950;2023-02-18T13:32:19;100311.00;;;9.02;100.00